sensor_id;sensor_type;location;lat;lon;timestamp;P1;durP1;ratioP1;P2;durP2;ratioP2
22650;SDS011;11492;42.646;23.400;2023-02-18T00:01:56;19.25;;;10.13;;
22650;SDS011;11492;42.646;23.400;2023-02-18T00:04:21;24.30;;;9.80;;
22650;SDS011;11492;42.646;23.400;2023-02-18T00:06:46;21.95;;;9.82;;
22650;SDS011;11492;42.646;23.400;2023-02-18T00:09:12;22.80;;;9.85;;
22650;SDS011;11492;42.646;23.400;2023-02-18T00:11:37;28.27;;;10.13;;
22650;SDS011;11492;42.646;23.400;2023-02-18T00:14:05;29.17;;;9.45;;
22650;SDS011;11492;42.646;23.400;2023-02-18T00:16:34;20.17;;;9.90;;
22650;SDS011;11492;42.646;23.400;2023-02-18T00:19:02;23.95;;;10.45;;
22650;SDS011;11492;42.646;23.400;2023-02-18T00:21:31;22.80;;;10.88;;
22650;SDS011;11492;42.646;23.400;2023-02-18T00:23:57;23.85;;;9.82;;
22650;SDS011;11492;42.646;23.400;2023-02-18T00:26:23;21.25;;;10.35;;
22650;SDS011;11492;42.646;23.400;2023-02-18T00:28:49;21.48;;;9.95;;
22650;SDS011;11492;42.646;23.400;2023-02-18T00:31:25;23.45;;;10.35;;
22650;SDS011;11492;42.646;23.400;2023-02-18T00:33:56;25.75;;;9.85;;
22650;SDS011;11492;42.646;23.400;2023-02-18T00:36:23;21.83;;;9.90;;
22650;SDS011;11492;42.646;23.400;2023-02-18T00:38:50;21.63;;;9.68;;
22650;SDS011;11492;42.646;23.400;2023-02-18T00:41:18;26.67;;;10.27;;
22650;SDS011;11492;42.646;23.400;2023-02-18T00:43:44;22.05;;;9.93;;
22650;SDS011;11492;42.646;23.400;2023-02-18T00:46:09;23.58;;;10.07;;
22650;SDS011;11492;42.646;23.400;2023-02-18T00:48:35;21.85;;;10.23;;
22650;SDS011;11492;42.646;23.400;2023-02-18T00:51:01;22.60;;;9.73;;
22650;SDS011;11492;42.646;23.400;2023-02-18T00:53:27;21.42;;;9.80;;
22650;SDS011;11492;42.646;23.400;2023-02-18T00:55:54;20.92;;;9.70;;
22650;SDS011;11492;42.646;23.400;2023-02-18T00:58:19;20.58;;;9.52;;
22650;SDS011;11492;42.646;23.400;2023-02-18T01:00:45;19.38;;;9.88;;
22650;SDS011;11492;42.646;23.400;2023-02-18T01:03:11;24.58;;;9.48;;
22650;SDS011;11492;42.646;23.400;2023-02-18T01:05:37;22.48;;;9.95;;
22650;SDS011;11492;42.646;23.400;2023-02-18T01:08:03;23.50;;;10.10;;
22650;SDS011;11492;42.646;23.400;2023-02-18T01:10:29;23.55;;;9.77;;
22650;SDS011;11492;42.646;23.400;2023-02-18T01:12:54;21.30;;;9.55;;
22650;SDS011;11492;42.646;23.400;2023-02-18T01:15:20;20.00;;;9.60;;
22650;SDS011;11492;42.646;23.400;2023-02-18T01:17:45;19.75;;;9.98;;
22650;SDS011;11492;42.646;23.400;2023-02-18T01:20:13;22.33;;;9.88;;
22650;SDS011;11492;42.646;23.400;2023-02-18T01:22:38;27.30;;;9.95;;
22650;SDS011;11492;42.646;23.400;2023-02-18T01:25:04;24.50;;;10.20;;
22650;SDS011;11492;42.646;23.400;2023-02-18T01:27:30;25.90;;;10.85;;
22650;SDS011;11492;42.646;23.400;2023-02-18T01:29:55;19.23;;;9.75;;
22650;SDS011;11492;42.646;23.400;2023-02-18T01:32:20;24.40;;;10.40;;
22650;SDS011;11492;42.646;23.400;2023-02-18T01:34:46;24.50;;;9.52;;
22650;SDS011;11492;42.646;23.400;2023-02-18T01:37:12;21.35;;;10.60;;
22650;SDS011;11492;42.646;23.400;2023-02-18T01:39:38;26.20;;;10.93;;
22650;SDS011;11492;42.646;23.400;2023-02-18T01:42:03;27.98;;;10.65;;
22650;SDS011;11492;42.646;23.400;2023-02-18T01:44:29;22.67;;;10.68;;
22650;SDS011;11492;42.646;23.400;2023-02-18T01:46:57;24.52;;;10.88;;
22650;SDS011;11492;42.646;23.400;2023-02-18T01:49:24;22.65;;;10.02;;
22650;SDS011;11492;42.646;23.400;2023-02-18T01:52:11;22.90;;;10.43;;
22650;SDS011;11492;42.646;23.400;2023-02-18T01:54:50;22.60;;;10.77;;
22650;SDS011;11492;42.646;23.400;2023-02-18T01:57:21;23.60;;;10.13;;
22650;SDS011;11492;42.646;23.400;2023-02-18T01:59:54;23.63;;;10.60;;
22650;SDS011;11492;42.646;23.400;2023-02-18T02:02:23;22.70;;;10.73;;
22650;SDS011;11492;42.646;23.400;2023-02-18T02:04:50;22.70;;;10.27;;
22650;SDS011;11492;42.646;23.400;2023-02-18T02:07:17;28.40;;;10.93;;
22650;SDS011;11492;42.646;23.400;2023-02-18T02:09:44;24.02;;;10.65;;
22650;SDS011;11492;42.646;23.400;2023-02-18T02:12:31;21.80;;;9.85;;
22650;SDS011;11492;42.646;23.400;2023-02-18T02:43:04;21.80;;;10.13;;
22650;SDS011;11492;42.646;23.400;2023-02-18T02:45:54;20.33;;;10.52;;
22650;SDS011;11492;42.646;23.400;2023-02-18T02:54:20;28.58;;;10.18;;
22650;SDS011;11492;42.646;23.400;2023-02-18T02:56:48;22.65;;;10.60;;
22650;SDS011;11492;42.646;23.400;2023-02-18T02:59:15;27.73;;;10.60;;
22650;SDS011;11492;42.646;23.400;2023-02-18T03:17:51;19.02;;;9.50;;
22650;SDS011;11492;42.646;23.400;2023-02-18T03:22:52;23.55;;;9.20;;
22650;SDS011;11492;42.646;23.400;2023-02-18T03:25:20;23.55;;;9.77;;
22650;SDS011;11492;42.646;23.400;2023-02-18T03:27:52;26.67;;;10.65;;
22650;SDS011;11492;42.646;23.400;2023-02-18T03:32:54;28.17;;;10.25;;
22650;SDS011;11492;42.646;23.400;2023-02-18T03:35:24;27.88;;;9.90;;
22650;SDS011;11492;42.646;23.400;2023-02-18T03:37:57;29.17;;;10.32;;
22650;SDS011;11492;42.646;23.400;2023-02-18T03:40:29;29.13;;;10.32;;
22650;SDS011;11492;42.646;23.400;2023-02-18T03:42:56;23.92;;;9.82;;
22650;SDS011;11492;42.646;23.400;2023-02-18T03:45:23;25.05;;;10.27;;
22650;SDS011;11492;42.646;23.400;2023-02-18T03:47:49;34.13;;;11.10;;
22650;SDS011;11492;42.646;23.400;2023-02-18T03:50:14;23.65;;;10.55;;
22650;SDS011;11492;42.646;23.400;2023-02-18T03:52:40;27.65;;;11.82;;
22650;SDS011;11492;42.646;23.400;2023-02-18T03:55:05;30.95;;;11.95;;
22650;SDS011;11492;42.646;23.400;2023-02-18T03:57:31;27.83;;;10.98;;
22650;SDS011;11492;42.646;23.400;2023-02-18T03:59:56;21.83;;;10.48;;
22650;SDS011;11492;42.646;23.400;2023-02-18T04:02:22;27.23;;;10.75;;
22650;SDS011;11492;42.646;23.400;2023-02-18T04:04:47;28.20;;;11.73;;
22650;SDS011;11492;42.646;23.400;2023-02-18T04:07:13;33.65;;;12.95;;
22650;SDS011;11492;42.646;23.400;2023-02-18T04:09:38;31.35;;;12.85;;
22650;SDS011;11492;42.646;23.400;2023-02-18T04:12:04;32.13;;;12.93;;
22650;SDS011;11492;42.646;23.400;2023-02-18T04:14:29;28.73;;;12.95;;
22650;SDS011;11492;42.646;23.400;2023-02-18T04:16:55;29.13;;;13.13;;
22650;SDS011;11492;42.646;23.400;2023-02-18T04:19:20;27.42;;;13.00;;
22650;SDS011;11492;42.646;23.400;2023-02-18T04:21:45;41.78;;;12.93;;
22650;SDS011;11492;42.646;23.400;2023-02-18T04:24:11;26.60;;;12.02;;
22650;SDS011;11492;42.646;23.400;2023-02-18T04:26:36;28.67;;;12.50;;
22650;SDS011;11492;42.646;23.400;2023-02-18T04:29:02;28.73;;;12.02;;
22650;SDS011;11492;42.646;23.400;2023-02-18T04:31:27;26.65;;;11.65;;
22650;SDS011;11492;42.646;23.400;2023-02-18T04:33:53;29.67;;;11.88;;
22650;SDS011;11492;42.646;23.400;2023-02-18T04:36:18;24.42;;;11.63;;
22650;SDS011;11492;42.646;23.400;2023-02-18T04:38:43;20.67;;;9.90;;
22650;SDS011;11492;42.646;23.400;2023-02-18T04:41:09;20.45;;;10.18;;
22650;SDS011;11492;42.646;23.400;2023-02-18T04:43:36;22.98;;;10.18;;
22650;SDS011;11492;42.646;23.400;2023-02-18T04:46:02;19.17;;;9.52;;
22650;SDS011;11492;42.646;23.400;2023-02-18T04:48:27;27.48;;;10.00;;
22650;SDS011;11492;42.646;23.400;2023-02-18T04:50:53;22.40;;;9.88;;
22650;SDS011;11492;42.646;23.400;2023-02-18T04:53:18;20.27;;;9.80;;
22650;SDS011;11492;42.646;23.400;2023-02-18T04:55:48;23.88;;;10.20;;
22650;SDS011;11492;42.646;23.400;2023-02-18T04:58:14;23.92;;;10.23;;
22650;SDS011;11492;42.646;23.400;2023-02-18T05:00:39;21.92;;;9.68;;
22650;SDS011;11492;42.646;23.400;2023-02-18T05:03:05;23.05;;;9.63;;
22650;SDS011;11492;42.646;23.400;2023-02-18T05:05:30;28.90;;;10.80;;
22650;SDS011;11492;42.646;23.400;2023-02-18T05:07:56;38.75;;;10.90;;
22650;SDS011;11492;42.646;23.400;2023-02-18T05:10:21;28.23;;;11.77;;
22650;SDS011;11492;42.646;23.400;2023-02-18T05:12:47;30.75;;;11.40;;
22650;SDS011;11492;42.646;23.400;2023-02-18T05:15:12;34.33;;;11.50;;
22650;SDS011;11492;42.646;23.400;2023-02-18T05:17:37;28.02;;;10.73;;
22650;SDS011;11492;42.646;23.400;2023-02-18T05:20:03;31.30;;;10.95;;
22650;SDS011;11492;42.646;23.400;2023-02-18T05:22:29;25.92;;;11.45;;
22650;SDS011;11492;42.646;23.400;2023-02-18T05:24:55;27.08;;;11.18;;
22650;SDS011;11492;42.646;23.400;2023-02-18T05:27:20;23.00;;;10.35;;
22650;SDS011;11492;42.646;23.400;2023-02-18T05:29:46;25.52;;;10.60;;
22650;SDS011;11492;42.646;23.400;2023-02-18T05:32:11;29.13;;;12.18;;
22650;SDS011;11492;42.646;23.400;2023-02-18T05:34:36;22.52;;;11.63;;
22650;SDS011;11492;42.646;23.400;2023-02-18T05:37:02;22.02;;;11.07;;
22650;SDS011;11492;42.646;23.400;2023-02-18T05:39:27;30.15;;;12.45;;
22650;SDS011;11492;42.646;23.400;2023-02-18T05:41:52;32.13;;;12.32;;
22650;SDS011;11492;42.646;23.400;2023-02-18T05:44:18;27.13;;;12.05;;
22650;SDS011;11492;42.646;23.400;2023-02-18T05:47:00;40.97;;;12.48;;
22650;SDS011;11492;42.646;23.400;2023-02-18T05:49:28;26.90;;;11.68;;
22650;SDS011;11492;42.646;23.400;2023-02-18T05:51:54;33.92;;;13.00;;
22650;SDS011;11492;42.646;23.400;2023-02-18T05:54:19;24.45;;;11.60;;
22650;SDS011;11492;42.646;23.400;2023-02-18T05:56:45;26.80;;;12.25;;
22650;SDS011;11492;42.646;23.400;2023-02-18T05:59:11;33.88;;;12.65;;
22650;SDS011;11492;42.646;23.400;2023-02-18T06:01:36;35.45;;;13.43;;
22650;SDS011;11492;42.646;23.400;2023-02-18T06:04:01;33.10;;;12.63;;
22650;SDS011;11492;42.646;23.400;2023-02-18T06:06:27;41.95;;;14.35;;
22650;SDS011;11492;42.646;23.400;2023-02-18T06:08:53;46.28;;;12.65;;
22650;SDS011;11492;42.646;23.400;2023-02-18T06:11:18;30.23;;;12.45;;
22650;SDS011;11492;42.646;23.400;2023-02-18T06:13:43;31.50;;;12.55;;
22650;SDS011;11492;42.646;23.400;2023-02-18T06:16:09;39.15;;;13.10;;
22650;SDS011;11492;42.646;23.400;2023-02-18T06:18:34;51.72;;;15.43;;
22650;SDS011;11492;42.646;23.400;2023-02-18T06:21:00;38.50;;;14.10;;
22650;SDS011;11492;42.646;23.400;2023-02-18T06:23:25;34.63;;;13.57;;
22650;SDS011;11492;42.646;23.400;2023-02-18T06:25:50;36.75;;;12.82;;
22650;SDS011;11492;42.646;23.400;2023-02-18T06:28:16;27.13;;;12.18;;
22650;SDS011;11492;42.646;23.400;2023-02-18T06:30:42;33.40;;;12.73;;
22650;SDS011;11492;42.646;23.400;2023-02-18T06:33:09;33.10;;;13.23;;
22650;SDS011;11492;42.646;23.400;2023-02-18T06:35:34;28.95;;;12.93;;
22650;SDS011;11492;42.646;23.400;2023-02-18T06:38:00;37.60;;;14.95;;
22650;SDS011;11492;42.646;23.400;2023-02-18T06:40:25;30.10;;;13.90;;
22650;SDS011;11492;42.646;23.400;2023-02-18T06:42:51;36.55;;;14.65;;
22650;SDS011;11492;42.646;23.400;2023-02-18T06:45:16;34.80;;;14.35;;
22650;SDS011;11492;42.646;23.400;2023-02-18T06:47:42;34.28;;;14.45;;
22650;SDS011;11492;42.646;23.400;2023-02-18T06:50:07;33.08;;;13.57;;
22650;SDS011;11492;42.646;23.400;2023-02-18T06:52:33;43.97;;;14.15;;
22650;SDS011;11492;42.646;23.400;2023-02-18T06:54:59;35.72;;;14.55;;
22650;SDS011;11492;42.646;23.400;2023-02-18T06:57:24;49.45;;;15.55;;
22650;SDS011;11492;42.646;23.400;2023-02-18T06:59:50;43.65;;;13.80;;
22650;SDS011;11492;42.646;23.400;2023-02-18T07:02:15;39.65;;;12.75;;
22650;SDS011;11492;42.646;23.400;2023-02-18T07:04:41;30.88;;;13.55;;
22650;SDS011;11492;42.646;23.400;2023-02-18T07:07:06;36.38;;;13.45;;
22650;SDS011;11492;42.646;23.400;2023-02-18T07:09:32;40.67;;;13.82;;
22650;SDS011;11492;42.646;23.400;2023-02-18T07:11:57;29.38;;;12.85;;
22650;SDS011;11492;42.646;23.400;2023-02-18T07:14:23;31.52;;;13.05;;
22650;SDS011;11492;42.646;23.400;2023-02-18T07:16:49;47.58;;;13.73;;
22650;SDS011;11492;42.646;23.400;2023-02-18T07:19:14;47.50;;;14.73;;
22650;SDS011;11492;42.646;23.400;2023-02-18T07:21:41;33.30;;;14.13;;
22650;SDS011;11492;42.646;23.400;2023-02-18T07:24:06;32.47;;;13.93;;
22650;SDS011;11492;42.646;23.400;2023-02-18T07:26:32;39.45;;;14.88;;
22650;SDS011;11492;42.646;23.400;2023-02-18T07:28:57;41.38;;;15.45;;
22650;SDS011;11492;42.646;23.400;2023-02-18T07:31:23;34.65;;;14.07;;
22650;SDS011;11492;42.646;23.400;2023-02-18T07:33:48;45.00;;;14.95;;
22650;SDS011;11492;42.646;23.400;2023-02-18T07:36:14;46.90;;;16.52;;
22650;SDS011;11492;42.646;23.400;2023-02-18T07:38:39;53.17;;;17.75;;
22650;SDS011;11492;42.646;23.400;2023-02-18T07:41:04;51.28;;;17.88;;
22650;SDS011;11492;42.646;23.400;2023-02-18T07:43:30;58.70;;;17.77;;
22650;SDS011;11492;42.646;23.400;2023-02-18T07:45:55;45.40;;;17.35;;
22650;SDS011;11492;42.646;23.400;2023-02-18T07:48:21;48.58;;;18.65;;
22650;SDS011;11492;42.646;23.400;2023-02-18T07:50:46;44.05;;;17.30;;
22650;SDS011;11492;42.646;23.400;2023-02-18T07:53:12;40.33;;;16.83;;
22650;SDS011;11492;42.646;23.400;2023-02-18T07:55:38;40.03;;;16.77;;
22650;SDS011;11492;42.646;23.400;2023-02-18T08:00:42;30.27;;;16.55;;
22650;SDS011;11492;42.646;23.400;2023-02-18T08:03:08;46.60;;;17.52;;
22650;SDS011;11492;42.646;23.400;2023-02-18T08:05:33;47.25;;;17.33;;
22650;SDS011;11492;42.646;23.400;2023-02-18T08:07:59;42.15;;;17.80;;
22650;SDS011;11492;42.646;23.400;2023-02-18T08:10:24;45.08;;;17.25;;
22650;SDS011;11492;42.646;23.400;2023-02-18T08:12:50;38.38;;;17.42;;
22650;SDS011;11492;42.646;23.400;2023-02-18T08:15:15;48.50;;;16.98;;
22650;SDS011;11492;42.646;23.400;2023-02-18T08:17:40;44.17;;;16.65;;
22650;SDS011;11492;42.646;23.400;2023-02-18T08:20:06;45.45;;;17.80;;
22650;SDS011;11492;42.646;23.400;2023-02-18T08:22:32;42.03;;;18.52;;
22650;SDS011;11492;42.646;23.400;2023-02-18T08:24:58;43.05;;;19.45;;
22650;SDS011;11492;42.646;23.400;2023-02-18T08:27:23;45.58;;;17.20;;
22650;SDS011;11492;42.646;23.400;2023-02-18T08:29:49;48.50;;;17.90;;
22650;SDS011;11492;42.646;23.400;2023-02-18T08:32:14;39.78;;;17.42;;
22650;SDS011;11492;42.646;23.400;2023-02-18T08:34:40;36.97;;;16.42;;
22650;SDS011;11492;42.646;23.400;2023-02-18T08:37:05;39.53;;;15.93;;
22650;SDS011;11492;42.646;23.400;2023-02-18T08:39:34;37.03;;;16.00;;
22650;SDS011;11492;42.646;23.400;2023-02-18T08:42:00;35.40;;;16.70;;
22650;SDS011;11492;42.646;23.400;2023-02-18T08:44:26;36.00;;;15.85;;
22650;SDS011;11492;42.646;23.400;2023-02-18T08:46:52;51.10;;;16.30;;
22650;SDS011;11492;42.646;23.400;2023-02-18T08:49:17;39.20;;;15.60;;
22650;SDS011;11492;42.646;23.400;2023-02-18T08:51:45;33.30;;;14.82;;
22650;SDS011;11492;42.646;23.400;2023-02-18T08:54:12;34.33;;;16.75;;
22650;SDS011;11492;42.646;23.400;2023-02-18T08:56:37;42.28;;;15.50;;
22650;SDS011;11492;42.646;23.400;2023-02-18T08:59:03;29.85;;;14.75;;
22650;SDS011;11492;42.646;23.400;2023-02-18T09:01:29;41.35;;;15.95;;
22650;SDS011;11492;42.646;23.400;2023-02-18T09:03:55;34.05;;;15.32;;
22650;SDS011;11492;42.646;23.400;2023-02-18T09:06:21;37.50;;;15.32;;
22650;SDS011;11492;42.646;23.400;2023-02-18T09:08:46;40.40;;;15.77;;
22650;SDS011;11492;42.646;23.400;2023-02-18T09:11:12;33.22;;;14.27;;
22650;SDS011;11492;42.646;23.400;2023-02-18T09:13:37;32.10;;;14.95;;
22650;SDS011;11492;42.646;23.400;2023-02-18T09:16:07;35.05;;;14.27;;
22650;SDS011;11492;42.646;23.400;2023-02-18T09:18:37;40.22;;;14.73;;
22650;SDS011;11492;42.646;23.400;2023-02-18T09:21:03;36.45;;;14.30;;
22650;SDS011;11492;42.646;23.400;2023-02-18T09:23:31;34.25;;;14.40;;
22650;SDS011;11492;42.646;23.400;2023-02-18T09:25:58;37.72;;;14.40;;
22650;SDS011;11492;42.646;23.400;2023-02-18T09:28:24;34.20;;;13.57;;
22650;SDS011;11492;42.646;23.400;2023-02-18T09:30:50;39.83;;;15.00;;
22650;SDS011;11492;42.646;23.400;2023-02-18T09:33:15;42.25;;;14.48;;
22650;SDS011;11492;42.646;23.400;2023-02-18T09:35:41;29.85;;;13.85;;
22650;SDS011;11492;42.646;23.400;2023-02-18T09:38:08;32.35;;;14.18;;
22650;SDS011;11492;42.646;23.400;2023-02-18T09:40:36;32.55;;;14.32;;
22650;SDS011;11492;42.646;23.400;2023-02-18T09:43:03;36.42;;;13.63;;
22650;SDS011;11492;42.646;23.400;2023-02-18T09:45:30;32.58;;;13.02;;
22650;SDS011;11492;42.646;23.400;2023-02-18T09:47:56;35.47;;;13.40;;
22650;SDS011;11492;42.646;23.400;2023-02-18T09:50:27;31.35;;;12.25;;
22650;SDS011;11492;42.646;23.400;2023-02-18T09:52:59;32.53;;;13.03;;
22650;SDS011;11492;42.646;23.400;2023-02-18T09:55:28;29.17;;;12.32;;
22650;SDS011;11492;42.646;23.400;2023-02-18T09:58:04;36.00;;;13.18;;
22650;SDS011;11492;42.646;23.400;2023-02-18T10:00:36;32.97;;;13.15;;
22650;SDS011;11492;42.646;23.400;2023-02-18T10:03:12;30.88;;;12.90;;
22650;SDS011;11492;42.646;23.400;2023-02-18T10:05:40;36.47;;;14.43;;
22650;SDS011;11492;42.646;23.400;2023-02-18T10:08:27;41.55;;;13.68;;
22650;SDS011;11492;42.646;23.400;2023-02-18T10:10:54;34.08;;;13.85;;
22650;SDS011;11492;42.646;23.400;2023-02-18T10:13:22;36.15;;;13.95;;
22650;SDS011;11492;42.646;23.400;2023-02-18T10:15:55;40.25;;;14.18;;
22650;SDS011;11492;42.646;23.400;2023-02-18T10:21:13;30.73;;;13.98;;
22650;SDS011;11492;42.646;23.400;2023-02-18T10:23:53;33.30;;;13.60;;
22650;SDS011;11492;42.646;23.400;2023-02-18T10:26:43;31.25;;;12.77;;
22650;SDS011;11492;42.646;23.400;2023-02-18T10:29:13;41.47;;;14.23;;
22650;SDS011;11492;42.646;23.400;2023-02-18T10:31:42;35.42;;;13.25;;
22650;SDS011;11492;42.646;23.400;2023-02-18T10:51:03;28.35;;;10.55;;
22650;SDS011;11492;42.646;23.400;2023-02-18T10:53:53;22.48;;;10.30;;
22650;SDS011;11492;42.646;23.400;2023-02-18T11:01:36;28.48;;;11.00;;
22650;SDS011;11492;42.646;23.400;2023-02-18T11:04:12;25.55;;;11.10;;
22650;SDS011;11492;42.646;23.400;2023-02-18T11:06:41;33.97;;;11.82;;
22650;SDS011;11492;42.646;23.400;2023-02-18T11:09:24;25.13;;;10.85;;
22650;SDS011;11492;42.646;23.400;2023-02-18T11:12:21;29.80;;;14.68;;
22650;SDS011;11492;42.646;23.400;2023-02-18T11:14:48;24.85;;;10.90;;
22650;SDS011;11492;42.646;23.400;2023-02-18T11:17:29;23.60;;;9.63;;
22650;SDS011;11492;42.646;23.400;2023-02-18T11:19:56;25.10;;;10.45;;
22650;SDS011;11492;42.646;23.400;2023-02-18T11:22:24;20.73;;;9.55;;
22650;SDS011;11492;42.646;23.400;2023-02-18T11:24:54;29.20;;;10.30;;
22650;SDS011;11492;42.646;23.400;2023-02-18T11:28:04;25.05;;;10.02;;
22650;SDS011;11492;42.646;23.400;2023-02-18T11:30:19;15.25;;;8.48;;
22650;SDS011;11492;42.646;23.400;2023-02-18T11:32:47;26.15;;;10.10;;
22650;SDS011;11492;42.646;23.400;2023-02-18T11:35:16;24.98;;;9.63;;
22650;SDS011;11492;42.646;23.400;2023-02-18T11:37:44;26.42;;;10.57;;
22650;SDS011;11492;42.646;23.400;2023-02-18T11:40:24;27.15;;;10.43;;
22650;SDS011;11492;42.646;23.400;2023-02-18T11:43:10;34.60;;;11.05;;
22650;SDS011;11492;42.646;23.400;2023-02-18T11:45:39;29.13;;;11.52;;
22650;SDS011;11492;42.646;23.400;2023-02-18T11:48:07;24.80;;;11.27;;
22650;SDS011;11492;42.646;23.400;2023-02-18T11:50:33;28.40;;;11.27;;
22650;SDS011;11492;42.646;23.400;2023-02-18T11:52:59;29.45;;;10.70;;
22650;SDS011;11492;42.646;23.400;2023-02-18T11:55:26;28.08;;;10.95;;
22650;SDS011;11492;42.646;23.400;2023-02-18T12:00:24;23.42;;;9.73;;
22650;SDS011;11492;42.646;23.400;2023-02-18T12:06:01;16.58;;;6.43;;
22650;SDS011;11492;42.646;23.400;2023-02-18T12:08:31;17.08;;;5.35;;
22650;SDS011;11492;42.646;23.400;2023-02-18T12:11:11;12.13;;;5.10;;
22650;SDS011;11492;42.646;23.400;2023-02-18T12:13:50;12.00;;;5.05;;
22650;SDS011;11492;42.646;23.400;2023-02-18T12:19:08;12.25;;;5.05;;
22650;SDS011;11492;42.646;23.400;2023-02-18T12:33:24;11.70;;;5.00;;
22650;SDS011;11492;42.646;23.400;2023-02-18T12:36:23;15.38;;;4.90;;
22650;SDS011;11492;42.646;23.400;2023-02-18T12:41:52;6.70;;;4.57;;
22650;SDS011;11492;42.646;23.400;2023-02-18T12:47:10;16.77;;;5.68;;
22650;SDS011;11492;42.646;23.400;2023-02-18T12:50:03;12.55;;;5.10;;
22650;SDS011;11492;42.646;23.400;2023-02-18T12:53:06;10.23;;;5.07;;
22650;SDS011;11492;42.646;23.400;2023-02-18T13:04:26;11.00;;;5.20;;
22650;SDS011;11492;42.646;23.400;2023-02-18T13:07:00;11.18;;;5.05;;
22650;SDS011;11492;42.646;23.400;2023-02-18T13:15:22;12.75;;;5.07;;
22650;SDS011;11492;42.646;23.400;2023-02-18T13:17:44;13.18;;;4.57;;
22650;SDS011;11492;42.646;23.400;2023-02-18T13:23:06;16.25;;;5.20;;
22650;SDS011;11492;42.646;23.400;2023-02-18T13:25:41;21.67;;;4.30;;
22650;SDS011;11492;42.646;23.400;2023-02-18T13:28:17;19.80;;;5.53;;
22650;SDS011;11492;42.646;23.400;2023-02-18T13:30:47;12.85;;;4.68;;
22650;SDS011;11492;42.646;23.400;2023-02-18T13:38:57;9.68;;;5.93;;
22650;SDS011;11492;42.646;23.400;2023-02-18T13:41:25;5.72;;;3.05;;
22650;SDS011;11492;42.646;23.400;2023-02-18T13:43:51;9.20;;;3.33;;
22650;SDS011;11492;42.646;23.400;2023-02-18T13:46:21;9.05;;;3.20;;
22650;SDS011;11492;42.646;23.400;2023-02-18T13:51:37;11.30;;;3.58;;
22650;SDS011;11492;42.646;23.400;2023-02-18T13:54:13;14.50;;;4.60;;
22650;SDS011;11492;42.646;23.400;2023-02-18T13:56:52;8.73;;;4.87;;
22650;SDS011;11492;42.646;23.400;2023-02-18T14:01:52;11.68;;;5.05;;
22650;SDS011;11492;42.646;23.400;2023-02-18T14:04:33;8.07;;;4.60;;
22650;SDS011;11492;42.646;23.400;2023-02-18T14:09:51;12.55;;;5.00;;
22650;SDS011;11492;42.646;23.400;2023-02-18T14:14:50;9.82;;;4.88;;
22650;SDS011;11492;42.646;23.400;2023-02-18T14:27:31;11.07;;;4.45;;
22650;SDS011;11492;42.646;23.400;2023-02-18T14:30:02;12.93;;;4.38;;
22650;SDS011;11492;42.646;23.400;2023-02-18T14:32:31;12.02;;;4.55;;
22650;SDS011;11492;42.646;23.400;2023-02-18T14:37:37;11.20;;;4.40;;
22650;SDS011;11492;42.646;23.400;2023-02-18T14:40:13;16.90;;;4.90;;
22650;SDS011;11492;42.646;23.400;2023-02-18T14:51:01;11.23;;;4.88;;
22650;SDS011;11492;42.646;23.400;2023-02-18T14:53:27;16.27;;;4.63;;
22650;SDS011;11492;42.646;23.400;2023-02-18T14:56:03;12.63;;;4.32;;
22650;SDS011;11492;42.646;23.400;2023-02-18T14:58:36;9.25;;;4.25;;
22650;SDS011;11492;42.646;23.400;2023-02-18T15:01:18;9.90;;;4.80;;
22650;SDS011;11492;42.646;23.400;2023-02-18T15:03:47;12.48;;;5.10;;
22650;SDS011;11492;42.646;23.400;2023-02-18T15:08:52;13.90;;;5.30;;
22650;SDS011;11492;42.646;23.400;2023-02-18T15:11:18;13.20;;;4.78;;
22650;SDS011;11492;42.646;23.400;2023-02-18T15:13:46;11.10;;;5.28;;
22650;SDS011;11492;42.646;23.400;2023-02-18T15:16:15;15.25;;;5.20;;
22650;SDS011;11492;42.646;23.400;2023-02-18T15:18:50;15.05;;;5.97;;
22650;SDS011;11492;42.646;23.400;2023-02-18T15:21:29;14.90;;;5.32;;
22650;SDS011;11492;42.646;23.400;2023-02-18T15:24:07;12.18;;;4.90;;
22650;SDS011;11492;42.646;23.400;2023-02-18T15:26:41;12.32;;;5.07;;
22650;SDS011;11492;42.646;23.400;2023-02-18T15:29:13;13.43;;;4.78;;
22650;SDS011;11492;42.646;23.400;2023-02-18T15:31:45;15.38;;;5.30;;
22650;SDS011;11492;42.646;23.400;2023-02-18T15:34:25;12.77;;;4.85;;
22650;SDS011;11492;42.646;23.400;2023-02-18T15:36:52;15.07;;;5.00;;
22650;SDS011;11492;42.646;23.400;2023-02-18T15:39:18;10.32;;;4.97;;
22650;SDS011;11492;42.646;23.400;2023-02-18T15:41:43;18.70;;;5.15;;
22650;SDS011;11492;42.646;23.400;2023-02-18T15:44:18;18.65;;;5.57;;
22650;SDS011;11492;42.646;23.400;2023-02-18T15:46:48;13.38;;;4.82;;
22650;SDS011;11492;42.646;23.400;2023-02-18T15:49:14;13.63;;;5.05;;
22650;SDS011;11492;42.646;23.400;2023-02-18T15:51:41;15.23;;;5.53;;
22650;SDS011;11492;42.646;23.400;2023-02-18T15:54:12;13.25;;;5.40;;
22650;SDS011;11492;42.646;23.400;2023-02-18T15:56:44;16.13;;;5.65;;
22650;SDS011;11492;42.646;23.400;2023-02-18T15:59:17;16.70;;;5.40;;
22650;SDS011;11492;42.646;23.400;2023-02-18T16:01:49;13.77;;;5.80;;
22650;SDS011;11492;42.646;23.400;2023-02-18T16:04:17;12.43;;;5.65;;
22650;SDS011;11492;42.646;23.400;2023-02-18T16:06:45;15.07;;;6.15;;
22650;SDS011;11492;42.646;23.400;2023-02-18T16:09:13;16.38;;;6.07;;
22650;SDS011;11492;42.646;23.400;2023-02-18T16:11:52;15.43;;;5.82;;
22650;SDS011;11492;42.646;23.400;2023-02-18T16:14:33;15.00;;;5.85;;
22650;SDS011;11492;42.646;23.400;2023-02-18T16:24:54;18.50;;;6.65;;
22650;SDS011;11492;42.646;23.400;2023-02-18T16:27:26;19.55;;;6.65;;
22650;SDS011;11492;42.646;23.400;2023-02-18T16:29:56;16.85;;;6.18;;
22650;SDS011;11492;42.646;23.400;2023-02-18T16:32:25;19.90;;;6.60;;
22650;SDS011;11492;42.646;23.400;2023-02-18T16:34:51;18.55;;;5.85;;
22650;SDS011;11492;42.646;23.400;2023-02-18T16:37:16;14.18;;;6.03;;
22650;SDS011;11492;42.646;23.400;2023-02-18T16:40:00;19.73;;;6.43;;
22650;SDS011;11492;42.646;23.400;2023-02-18T16:42:26;15.77;;;5.95;;
22650;SDS011;11492;42.646;23.400;2023-02-18T16:44:51;15.48;;;5.82;;
22650;SDS011;11492;42.646;23.400;2023-02-18T16:47:17;18.17;;;6.45;;
22650;SDS011;11492;42.646;23.400;2023-02-18T16:49:44;20.25;;;6.80;;
22650;SDS011;11492;42.646;23.400;2023-02-18T16:52:12;15.32;;;6.28;;
22650;SDS011;11492;42.646;23.400;2023-02-18T16:54:41;14.45;;;6.30;;
22650;SDS011;11492;42.646;23.400;2023-02-18T16:57:07;15.68;;;6.50;;
22650;SDS011;11492;42.646;23.400;2023-02-18T16:59:34;17.58;;;6.78;;
22650;SDS011;11492;42.646;23.400;2023-02-18T17:01:59;18.38;;;6.15;;
22650;SDS011;11492;42.646;23.400;2023-02-18T17:04:25;17.23;;;6.50;;
22650;SDS011;11492;42.646;23.400;2023-02-18T17:06:50;14.13;;;6.25;;
22650;SDS011;11492;42.646;23.400;2023-02-18T17:09:17;15.50;;;5.80;;
22650;SDS011;11492;42.646;23.400;2023-02-18T17:11:46;14.43;;;5.45;;
22650;SDS011;11492;42.646;23.400;2023-02-18T17:14:14;15.23;;;5.93;;
22650;SDS011;11492;42.646;23.400;2023-02-18T17:16:46;13.20;;;6.57;;